sensor_id;sensor_type;location;lat;lon;timestamp;temperature;humidity
3756;DHT22;1893;52.526;13.360;2023-02-12T00:01:01;6.80;99.90
3756;DHT22;1893;52.526;13.360;2023-02-12T00:03:27;6.80;99.90
3756;DHT22;1893;52.526;13.360;2023-02-12T00:05:53;6.70;99.90
3756;DHT22;1893;52.526;13.360;2023-02-12T00:08:18;6.70;99.90
3756;DHT22;1893;52.526;13.360;2023-02-12T00:10:44;6.70;99.90
3756;DHT22;1893;52.526;13.360;2023-02-12T00:13:10;6.70;99.90
3756;DHT22;1893;52.526;13.360;2023-02-12T00:15:40;6.70;99.90
3756;DHT22;1893;52.526;13.360;2023-02-12T00:18:06;6.70;99.90
3756;DHT22;1893;52.526;13.360;2023-02-12T00:20:32;6.70;99.90
3756;DHT22;1893;52.526;13.360;2023-02-12T00:22:57;6.70;99.90
3756;DHT22;1893;52.526;13.360;2023-02-12T00:25:23;6.70;99.90
3756;DHT22;1893;52.526;13.360;2023-02-12T00:27:49;6.70;99.90
3756;DHT22;1893;52.526;13.360;2023-02-12T00:30:15;6.70;99.90
3756;DHT22;1893;52.526;13.360;2023-02-12T00:32:40;6.70;99.90
3756;DHT22;1893;52.526;13.360;2023-02-12T00:35:06;6.70;99.90
3756;DHT22;1893;52.526;13.360;2023-02-12T00:37:32;6.70;99.90
3756;DHT22;1893;52.526;13.360;2023-02-12T00:39:57;6.70;99.90
3756;DHT22;1893;52.526;13.360;2023-02-12T00:42:23;6.70;99.90
3756;DHT22;1893;52.526;13.360;2023-02-12T00:44:48;6.70;99.90
3756;DHT22;1893;52.526;13.360;2023-02-12T00:47:14;6.70;99.90
3756;DHT22;1893;52.526;13.360;2023-02-12T00:49:41;6.70;99.90
3756;DHT22;1893;52.526;13.360;2023-02-12T00:52:07;6.70;99.90
3756;DHT22;1893;52.526;13.360;2023-02-12T00:54:33;6.70;99.90
3756;DHT22;1893;52.526;13.360;2023-02-12T00:56:59;6.90;99.90
3756;DHT22;1893;52.526;13.360;2023-02-12T00:59:25;6.70;99.90
3756;DHT22;1893;52.526;13.360;2023-02-12T01:01:53;6.70;99.90
3756;DHT22;1893;52.526;13.360;2023-02-12T01:04:19;6.70;99.90
3756;DHT22;1893;52.526;13.360;2023-02-12T01:06:45;6.70;99.90
3756;DHT22;1893;52.526;13.360;2023-02-12T01:09:11;6.70;99.90
3756;DHT22;1893;52.526;13.360;2023-02-12T01:11:36;6.60;99.90
3756;DHT22;1893;52.526;13.360;2023-02-12T01:14:02;6.60;99.90
3756;DHT22;1893;52.526;13.360;2023-02-12T01:16:29;6.60;99.90
3756;DHT22;1893;52.526;13.360;2023-02-12T01:18:56;6.60;99.90
3756;DHT22;1893;52.526;13.360;2023-02-12T01:21:27;6.60;99.90
3756;DHT22;1893;52.526;13.360;2023-02-12T01:23:54;6.60;99.90
3756;DHT22;1893;52.526;13.360;2023-02-12T01:26:20;6.60;99.90
3756;DHT22;1893;52.526;13.360;2023-02-12T01:29:05;6.60;99.90
3756;DHT22;1893;52.526;13.360;2023-02-12T01:31:35;6.60;99.90
3756;DHT22;1893;52.526;13.360;2023-02-12T01:34:02;6.60;99.90
3756;DHT22;1893;52.526;13.360;2023-02-12T01:36:29;6.70;99.90
3756;DHT22;1893;52.526;13.360;2023-02-12T01:38:55;6.70;99.90
3756;DHT22;1893;52.526;13.360;2023-02-12T01:41:30;6.70;99.90
3756;DHT22;1893;52.526;13.360;2023-02-12T01:46:30;6.70;99.90
3756;DHT22;1893;52.526;13.360;2023-02-12T01:48:56;6.70;99.90
3756;DHT22;1893;52.526;13.360;2023-02-12T01:51:23;6.70;99.90
3756;DHT22;1893;52.526;13.360;2023-02-12T01:53:52;6.70;99.90
3756;DHT22;1893;52.526;13.360;2023-02-12T01:56:19;6.70;99.90
3756;DHT22;1893;52.526;13.360;2023-02-12T01:58:46;6.70;99.90
3756;DHT22;1893;52.526;13.360;2023-02-12T02:01:17;6.70;99.90
3756;DHT22;1893;52.526;13.360;2023-02-12T02:03:46;6.70;99.90
3756;DHT22;1893;52.526;13.360;2023-02-12T02:06:27;6.70;99.90
3756;DHT22;1893;52.526;13.360;2023-02-12T02:08:56;6.60;99.90
3756;DHT22;1893;52.526;13.360;2023-02-12T02:11:22;6.60;99.90
3756;DHT22;1893;52.526;13.360;2023-02-12T02:14:06;6.60;99.90
3756;DHT22;1893;52.526;13.360;2023-02-12T02:33:54;6.50;99.90
3756;DHT22;1893;52.526;13.360;2023-02-12T02:36:44;6.50;99.90
3756;DHT22;1893;52.526;13.360;2023-02-12T02:42:23;6.50;99.90
3756;DHT22;1893;52.526;13.360;2023-02-12T02:45:00;6.50;99.90
3756;DHT22;1893;52.526;13.360;2023-02-12T02:47:37;6.50;99.90
3756;DHT22;1893;52.526;13.360;2023-02-12T02:50:16;6.50;99.90
3756;DHT22;1893;52.526;13.360;2023-02-12T02:55:52;6.50;99.90
3756;DHT22;1893;52.526;13.360;2023-02-12T02:58:49;6.60;99.90
3756;DHT22;1893;52.526;13.360;2023-02-12T03:01:38;6.50;99.90
3756;DHT22;1893;52.526;13.360;2023-02-12T03:04:08;6.50;99.90
3756;DHT22;1893;52.526;13.360;2023-02-12T03:06:51;6.40;99.90
3756;DHT22;1893;52.526;13.360;2023-02-12T03:09:28;6.50;99.90
3756;DHT22;1893;52.526;13.360;2023-02-12T03:11:58;6.40;99.90
3756;DHT22;1893;52.526;13.360;2023-02-12T03:14:31;6.40;99.90
3756;DHT22;1893;52.526;13.360;2023-02-12T03:17:08;6.40;99.90
3756;DHT22;1893;52.526;13.360;2023-02-12T03:19:42;6.40;99.90
3756;DHT22;1893;52.526;13.360;2023-02-12T03:22:12;6.40;99.90
3756;DHT22;1893;52.526;13.360;2023-02-12T03:24:52;6.40;99.90
3756;DHT22;1893;52.526;13.360;2023-02-12T03:27:30;6.40;99.90
3756;DHT22;1893;52.526;13.360;2023-02-12T03:29:57;6.50;99.90
3756;DHT22;1893;52.526;13.360;2023-02-12T03:35:41;6.40;99.90
3756;DHT22;1893;52.526;13.360;2023-02-12T03:38:25;6.40;99.90
3756;DHT22;1893;52.526;13.360;2023-02-12T03:41:04;6.40;99.90
3756;DHT22;1893;52.526;13.360;2023-02-12T03:46:14;6.30;99.90
3756;DHT22;1893;52.526;13.360;2023-02-12T03:51:21;6.30;99.90
3756;DHT22;1893;52.526;13.360;2023-02-12T03:53:48;6.30;99.90
3756;DHT22;1893;52.526;13.360;2023-02-12T03:56:45;6.30;99.90
3756;DHT22;1893;52.526;13.360;2023-02-12T03:59:13;6.30;99.90
3756;DHT22;1893;52.526;13.360;2023-02-12T04:01:39;6.30;99.90
3756;DHT22;1893;52.526;13.360;2023-02-12T04:04:06;6.30;99.90
3756;DHT22;1893;52.526;13.360;2023-02-12T04:06:33;6.30;99.90
3756;DHT22;1893;52.526;13.360;2023-02-12T04:09:02;6.30;99.90
3756;DHT22;1893;52.526;13.360;2023-02-12T04:17:21;6.30;99.90
3756;DHT22;1893;52.526;13.360;2023-02-12T04:20:08;6.30;99.90
3756;DHT22;1893;52.526;13.360;2023-02-12T04:28:05;6.20;99.90
3756;DHT22;1893;52.526;13.360;2023-02-12T04:30:36;6.20;99.90
3756;DHT22;1893;52.526;13.360;2023-02-12T04:33:04;6.30;99.90
3756;DHT22;1893;52.526;13.360;2023-02-12T04:35:42;6.30;99.90
3756;DHT22;1893;52.526;13.360;2023-02-12T04:38:39;6.30;99.90
3756;DHT22;1893;52.526;13.360;2023-02-12T04:41:06;6.30;99.90
3756;DHT22;1893;52.526;13.360;2023-02-12T04:43:34;6.30;99.90
3756;DHT22;1893;52.526;13.360;2023-02-12T04:46:01;6.20;99.90
3756;DHT22;1893;52.526;13.360;2023-02-12T04:48:27;6.20;99.90
3756;DHT22;1893;52.526;13.360;2023-02-12T04:50:52;6.20;99.90
3756;DHT22;1893;52.526;13.360;2023-02-12T04:53:18;6.20;99.90
3756;DHT22;1893;52.526;13.360;2023-02-12T04:55:43;6.20;99.90
3756;DHT22;1893;52.526;13.360;2023-02-12T04:58:09;6.20;99.90
3756;DHT22;1893;52.526;13.360;2023-02-12T05:00:35;6.20;99.90
3756;DHT22;1893;52.526;13.360;2023-02-12T05:03:01;6.20;99.90
3756;DHT22;1893;52.526;13.360;2023-02-12T05:05:27;6.20;99.90
3756;DHT22;1893;52.526;13.360;2023-02-12T05:07:52;6.20;99.90
3756;DHT22;1893;52.526;13.360;2023-02-12T05:10:18;6.20;99.90
3756;DHT22;1893;52.526;13.360;2023-02-12T05:12:44;6.20;99.90
3756;DHT22;1893;52.526;13.360;2023-02-12T05:15:10;6.20;99.90
3756;DHT22;1893;52.526;13.360;2023-02-12T05:17:36;6.20;99.90
3756;DHT22;1893;52.526;13.360;2023-02-12T05:20:03;6.20;99.90
3756;DHT22;1893;52.526;13.360;2023-02-12T05:22:29;6.20;99.90
3756;DHT22;1893;52.526;13.360;2023-02-12T05:24:55;6.30;99.90
3756;DHT22;1893;52.526;13.360;2023-02-12T05:27:20;6.20;99.90
3756;DHT22;1893;52.526;13.360;2023-02-12T05:29:46;6.20;99.90
3756;DHT22;1893;52.526;13.360;2023-02-12T05:32:11;6.20;99.90
3756;DHT22;1893;52.526;13.360;2023-02-12T05:34:37;6.20;99.90
3756;DHT22;1893;52.526;13.360;2023-02-12T05:37:03;6.20;99.90
3756;DHT22;1893;52.526;13.360;2023-02-12T05:39:28;6.20;99.90
3756;DHT22;1893;52.526;13.360;2023-02-12T05:41:54;6.20;99.90
3756;DHT22;1893;52.526;13.360;2023-02-12T05:44:20;6.20;99.90
3756;DHT22;1893;52.526;13.360;2023-02-12T05:46:45;6.20;99.90
3756;DHT22;1893;52.526;13.360;2023-02-12T05:49:11;6.20;99.90
3756;DHT22;1893;52.526;13.360;2023-02-12T05:51:37;6.10;99.90
3756;DHT22;1893;52.526;13.360;2023-02-12T05:54:05;6.20;99.90
3756;DHT22;1893;52.526;13.360;2023-02-12T05:56:32;6.20;99.90
3756;DHT22;1893;52.526;13.360;2023-02-12T05:59:01;6.20;99.90
3756;DHT22;1893;52.526;13.360;2023-02-12T06:01:37;6.20;99.90
3756;DHT22;1893;52.526;13.360;2023-02-12T06:04:05;6.20;99.90
3756;DHT22;1893;52.526;13.360;2023-02-12T06:06:32;6.20;99.90
3756;DHT22;1893;52.526;13.360;2023-02-12T06:08:58;6.20;99.90
3756;DHT22;1893;52.526;13.360;2023-02-12T06:11:23;6.20;99.90
3756;DHT22;1893;52.526;13.360;2023-02-12T06:13:49;6.20;99.90
3756;DHT22;1893;52.526;13.360;2023-02-12T06:16:21;6.20;99.90
3756;DHT22;1893;52.526;13.360;2023-02-12T06:18:48;6.20;99.90
3756;DHT22;1893;52.526;13.360;2023-02-12T06:21:15;6.20;99.90
3756;DHT22;1893;52.526;13.360;2023-02-12T06:23:41;6.20;99.90
3756;DHT22;1893;52.526;13.360;2023-02-12T06:26:07;6.20;99.90
3756;DHT22;1893;52.526;13.360;2023-02-12T06:28:32;6.20;99.90
3756;DHT22;1893;52.526;13.360;2023-02-12T06:30:58;6.20;99.90
3756;DHT22;1893;52.526;13.360;2023-02-12T06:33:24;6.20;99.90
3756;DHT22;1893;52.526;13.360;2023-02-12T06:35:49;6.20;99.90
3756;DHT22;1893;52.526;13.360;2023-02-12T06:38:15;6.20;99.90
3756;DHT22;1893;52.526;13.360;2023-02-12T06:40:41;6.20;99.90
3756;DHT22;1893;52.526;13.360;2023-02-12T06:43:07;6.20;99.90
3756;DHT22;1893;52.526;13.360;2023-02-12T06:45:33;6.20;99.90
3756;DHT22;1893;52.526;13.360;2023-02-12T06:47:59;6.20;99.90
3756;DHT22;1893;52.526;13.360;2023-02-12T06:50:25;6.20;99.90
3756;DHT22;1893;52.526;13.360;2023-02-12T06:52:50;6.20;99.90
3756;DHT22;1893;52.526;13.360;2023-02-12T06:55:16;6.20;99.90
3756;DHT22;1893;52.526;13.360;2023-02-12T06:57:42;6.20;99.90
3756;DHT22;1893;52.526;13.360;2023-02-12T07:00:08;6.20;99.90
3756;DHT22;1893;52.526;13.360;2023-02-12T07:02:34;6.20;99.90
3756;DHT22;1893;52.526;13.360;2023-02-12T07:05:00;6.20;99.90
3756;DHT22;1893;52.526;13.360;2023-02-12T07:07:26;6.20;99.90
3756;DHT22;1893;52.526;13.360;2023-02-12T07:09:52;6.20;99.90
3756;DHT22;1893;52.526;13.360;2023-02-12T07:12:17;6.30;99.90
3756;DHT22;1893;52.526;13.360;2023-02-12T07:14:43;6.30;99.90
3756;DHT22;1893;52.526;13.360;2023-02-12T07:17:09;6.30;99.90
3756;DHT22;1893;52.526;13.360;2023-02-12T07:19:35;6.30;99.90
3756;DHT22;1893;52.526;13.360;2023-02-12T07:22:01;6.30;99.90
3756;DHT22;1893;52.526;13.360;2023-02-12T07:24:26;6.30;99.90
3756;DHT22;1893;52.526;13.360;2023-02-12T07:26:52;6.30;99.90
3756;DHT22;1893;52.526;13.360;2023-02-12T07:29:18;6.30;99.90
3756;DHT22;1893;52.526;13.360;2023-02-12T07:31:43;6.30;99.90
3756;DHT22;1893;52.526;13.360;2023-02-12T07:34:09;6.20;99.90
3756;DHT22;1893;52.526;13.360;2023-02-12T07:36:35;6.30;99.90
3756;DHT22;1893;52.526;13.360;2023-02-12T07:39:02;6.30;99.90
3756;DHT22;1893;52.526;13.360;2023-02-12T07:41:30;6.40;99.90
3756;DHT22;1893;52.526;13.360;2023-02-12T07:44:01;6.40;99.90
3756;DHT22;1893;52.526;13.360;2023-02-12T07:46:37;6.40;99.90
3756;DHT22;1893;52.526;13.360;2023-02-12T07:49:05;6.50;99.90
3756;DHT22;1893;52.526;13.360;2023-02-12T07:51:32;6.50;99.90
3756;DHT22;1893;52.526;13.360;2023-02-12T07:53:58;6.60;99.90
3756;DHT22;1893;52.526;13.360;2023-02-12T07:56:29;6.60;99.90
3756;DHT22;1893;52.526;13.360;2023-02-12T07:59:01;6.60;99.90
3756;DHT22;1893;52.526;13.360;2023-02-12T08:01:32;6.60;99.90
3756;DHT22;1893;52.526;13.360;2023-02-12T08:04:06;6.70;99.90
3756;DHT22;1893;52.526;13.360;2023-02-12T08:06:37;6.70;99.90
3756;DHT22;1893;52.526;13.360;2023-02-12T08:09:05;6.80;99.90
3756;DHT22;1893;52.526;13.360;2023-02-12T08:11:31;6.80;99.90
3756;DHT22;1893;52.526;13.360;2023-02-12T08:13:58;6.80;99.90
3756;DHT22;1893;52.526;13.360;2023-02-12T08:16:26;6.90;99.90
3756;DHT22;1893;52.526;13.360;2023-02-12T08:18:52;6.90;99.90
3756;DHT22;1893;52.526;13.360;2023-02-12T08:21:24;7.00;99.90
3756;DHT22;1893;52.526;13.360;2023-02-12T08:23:50;6.90;99.90
3756;DHT22;1893;52.526;13.360;2023-02-12T08:28:55;7.00;99.90
3756;DHT22;1893;52.526;13.360;2023-02-12T08:31:23;7.00;99.90
3756;DHT22;1893;52.526;13.360;2023-02-12T08:33:50;7.10;99.90
3756;DHT22;1893;52.526;13.360;2023-02-12T08:36:18;7.10;99.90
3756;DHT22;1893;52.526;13.360;2023-02-12T08:38:45;7.10;99.90
3756;DHT22;1893;52.526;13.360;2023-02-12T08:41:16;7.00;99.90
3756;DHT22;1893;52.526;13.360;2023-02-12T08:43:44;7.00;99.90
3756;DHT22;1893;52.526;13.360;2023-02-12T08:46:15;7.00;99.90
3756;DHT22;1893;52.526;13.360;2023-02-12T08:48:42;7.00;99.90
3756;DHT22;1893;52.526;13.360;2023-02-12T08:51:10;7.00;99.90
3756;DHT22;1893;52.526;13.360;2023-02-12T08:53:45;7.00;99.90
3756;DHT22;1893;52.526;13.360;2023-02-12T08:56:12;7.00;99.90
3756;DHT22;1893;52.526;13.360;2023-02-12T08:58:38;7.10;99.90
3756;DHT22;1893;52.526;13.360;2023-02-12T09:01:09;7.20;99.90
3756;DHT22;1893;52.526;13.360;2023-02-12T09:03:35;7.20;99.90
3756;DHT22;1893;52.526;13.360;2023-02-12T09:06:02;7.20;99.90
3756;DHT22;1893;52.526;13.360;2023-02-12T09:08:29;7.20;99.90
3756;DHT22;1893;52.526;13.360;2023-02-12T09:10:55;7.20;99.90
3756;DHT22;1893;52.526;13.360;2023-02-12T09:13:21;7.30;99.90
3756;DHT22;1893;52.526;13.360;2023-02-12T09:15:46;7.40;99.90
3756;DHT22;1893;52.526;13.360;2023-02-12T09:18:13;7.40;99.90
3756;DHT22;1893;52.526;13.360;2023-02-12T09:20:41;7.60;99.90
3756;DHT22;1893;52.526;13.360;2023-02-12T09:23:10;7.50;99.90
3756;DHT22;1893;52.526;13.360;2023-02-12T09:25:44;7.60;99.90
3756;DHT22;1893;52.526;13.360;2023-02-12T09:28:12;7.70;99.90
3756;DHT22;1893;52.526;13.360;2023-02-12T09:30:39;7.60;99.90
3756;DHT22;1893;52.526;13.360;2023-02-12T09:33:06;7.70;99.90
3756;DHT22;1893;52.526;13.360;2023-02-12T09:35:34;7.50;99.90
3756;DHT22;1893;52.526;13.360;2023-02-12T09:38:01;7.60;99.90
3756;DHT22;1893;52.526;13.360;2023-02-12T09:45:46;7.80;99.90
3756;DHT22;1893;52.526;13.360;2023-02-12T09:50:59;8.00;99.90
3756;DHT22;1893;52.526;13.360;2023-02-12T09:53:30;8.00;99.90
3756;DHT22;1893;52.526;13.360;2023-02-12T09:55:57;8.00;99.90
3756;DHT22;1893;52.526;13.360;2023-02-12T09:58:33;8.00;99.90
3756;DHT22;1893;52.526;13.360;2023-02-12T10:01:09;7.90;99.90
3756;DHT22;1893;52.526;13.360;2023-02-12T10:03:36;7.80;99.90
3756;DHT22;1893;52.526;13.360;2023-02-12T10:06:04;7.70;99.90
3756;DHT22;1893;52.526;13.360;2023-02-12T10:08:39;7.80;99.90
3756;DHT22;1893;52.526;13.360;2023-02-12T10:11:38;7.80;99.90
3756;DHT22;1893;52.526;13.360;2023-02-12T10:25:39;8.20;99.90
3756;DHT22;1893;52.526;13.360;2023-02-12T10:28:12;7.90;99.90
3756;DHT22;1893;52.526;13.360;2023-02-12T10:31:17;7.70;99.90
3756;DHT22;1893;52.526;13.360;2023-02-12T10:33:47;7.70;99.90
3756;DHT22;1893;52.526;13.360;2023-02-12T10:39:02;7.50;99.90
3756;DHT22;1893;52.526;13.360;2023-02-12T10:41:31;7.60;99.90
3756;DHT22;1893;52.526;13.360;2023-02-12T10:44:01;7.50;99.90
3756;DHT22;1893;52.526;13.360;2023-02-12T10:46:29;7.50;99.90
3756;DHT22;1893;52.526;13.360;2023-02-12T10:48:57;7.40;99.90
3756;DHT22;1893;52.526;13.360;2023-02-12T10:51:37;7.40;99.90
3756;DHT22;1893;52.526;13.360;2023-02-12T10:56:59;7.50;99.90
3756;DHT22;1893;52.526;13.360;2023-02-12T10:59:30;7.60;99.90
3756;DHT22;1893;52.526;13.360;2023-02-12T11:01:56;7.70;99.90
3756;DHT22;1893;52.526;13.360;2023-02-12T11:04:30;7.70;99.90
3756;DHT22;1893;52.526;13.360;2023-02-12T11:07:04;7.70;99.90
3756;DHT22;1893;52.526;13.360;2023-02-12T11:09:36;7.70;99.90
3756;DHT22;1893;52.526;13.360;2023-02-12T11:14:51;7.70;99.90
3756;DHT22;1893;52.526;13.360;2023-02-12T11:17:27;7.70;99.90
3756;DHT22;1893;52.526;13.360;2023-02-12T11:22:57;7.40;99.90
3756;DHT22;1893;52.526;13.360;2023-02-12T11:25:25;7.50;99.90
3756;DHT22;1893;52.526;13.360;2023-02-12T11:28:20;7.50;99.90
3756;DHT22;1893;52.526;13.360;2023-02-12T11:36:10;7.80;99.90
3756;DHT22;1893;52.526;13.360;2023-02-12T11:38:52;7.60;99.90
3756;DHT22;1893;52.526;13.360;2023-02-12T11:41:32;7.50;99.90
3756;DHT22;1893;52.526;13.360;2023-02-12T11:44:07;7.40;99.90
3756;DHT22;1893;52.526;13.360;2023-02-12T11:46:33;7.50;99.90
3756;DHT22;1893;52.526;13.360;2023-02-12T11:49:00;7.50;99.90
3756;DHT22;1893;52.526;13.360;2023-02-12T11:51:28;7.50;99.90
3756;DHT22;1893;52.526;13.360;2023-02-12T11:53:57;7.50;99.90
3756;DHT22;1893;52.526;13.360;2023-02-12T11:56:25;7.40;99.90
3756;DHT22;1893;52.526;13.360;2023-02-12T11:59:17;7.30;99.90
3756;DHT22;1893;52.526;13.360;2023-02-12T12:01:46;7.40;99.90
3756;DHT22;1893;52.526;13.360;2023-02-12T12:04:16;7.30;99.90
3756;DHT22;1893;52.526;13.360;2023-02-12T12:06:47;7.30;99.90
3756;DHT22;1893;52.526;13.360;2023-02-12T12:12:18;7.40;99.90
3756;DHT22;1893;52.526;13.360;2023-02-12T12:14:53;7.30;99.90
3756;DHT22;1893;52.526;13.360;2023-02-12T12:17:48;7.40;99.90
3756;DHT22;1893;52.526;13.360;2023-02-12T12:20:56;7.40;99.90
3756;DHT22;1893;52.526;13.360;2023-02-12T12:23:35;7.50;99.90
3756;DHT22;1893;52.526;13.360;2023-02-12T12:26:24;7.50;99.90
3756;DHT22;1893;52.526;13.360;2023-02-12T12:29:21;7.60;99.90
3756;DHT22;1893;52.526;13.360;2023-02-12T12:31:49;7.50;99.90
3756;DHT22;1893;52.526;13.360;2023-02-12T12:34:17;7.60;99.90
3756;DHT22;1893;52.526;13.360;2023-02-12T12:36:58;7.70;99.90
3756;DHT22;1893;52.526;13.360;2023-02-12T12:42:46;7.90;99.90
3756;DHT22;1893;52.526;13.360;2023-02-12T12:45:33;7.90;99.90
3756;DHT22;1893;52.526;13.360;2023-02-12T12:48:12;8.10;99.90
3756;DHT22;1893;52.526;13.360;2023-02-12T12:53:46;8.10;99.90
3756;DHT22;1893;52.526;13.360;2023-02-12T12:56:44;8.30;99.90
3756;DHT22;1893;52.526;13.360;2023-02-12T13:04:36;8.80;99.90
3756;DHT22;1893;52.526;13.360;2023-02-12T13:20:54;8.40;99.90
3756;DHT22;1893;52.526;13.360;2023-02-12T13:23:28;8.30;99.90
3756;DHT22;1893;52.526;13.360;2023-02-12T13:29:10;8.60;99.90
3756;DHT22;1893;52.526;13.360;2023-02-12T13:31:44;8.40;99.90
3756;DHT22;1893;52.526;13.360;2023-02-12T13:34:13;8.50;99.90
3756;DHT22;1893;52.526;13.360;2023-02-12T13:36:40;9.20;99.90
3756;DHT22;1893;52.526;13.360;2023-02-12T13:41:33;10.10;99.90
3756;DHT22;1893;52.526;13.360;2023-02-12T13:44:16;11.10;99.90
3756;DHT22;1893;52.526;13.360;2023-02-12T13:52:16;10.80;99.90
3756;DHT22;1893;52.526;13.360;2023-02-12T13:57:24;10.60;99.90
3756;DHT22;1893;52.526;13.360;2023-02-12T13:59:50;10.90;99.90
3756;DHT22;1893;52.526;13.360;2023-02-12T14:02:44;11.90;99.90
3756;DHT22;1893;52.526;13.360;2023-02-12T14:07:43;11.50;99.90
3756;DHT22;1893;52.526;13.360;2023-02-12T14:10:31;10.40;99.90
3756;DHT22;1893;52.526;13.360;2023-02-12T14:13:21;9.80;99.90
3756;DHT22;1893;52.526;13.360;2023-02-12T14:15:55;9.30;99.90
3756;DHT22;1893;52.526;13.360;2023-02-12T14:23:45;9.10;99.90
3756;DHT22;1893;52.526;13.360;2023-02-12T14:26:11;9.10;99.90
3756;DHT22;1893;52.526;13.360;2023-02-12T14:28:49;9.10;99.90
3756;DHT22;1893;52.526;13.360;2023-02-12T14:33:52;9.20;99.90
3756;DHT22;1893;52.526;13.360;2023-02-12T14:41:45;9.00;99.90
3756;DHT22;1893;52.526;13.360;2023-02-12T14:54:42;9.20;99.90
3756;DHT22;1893;52.526;13.360;2023-02-12T14:57:25;9.20;99.90
3756;DHT22;1893;52.526;13.360;2023-02-12T14:59:56;9.20;99.90
3756;DHT22;1893;52.526;13.360;2023-02-12T15:02:26;9.20;99.90
3756;DHT22;1893;52.526;13.360;2023-02-12T15:04:56;9.20;99.90
3756;DHT22;1893;52.526;13.360;2023-02-12T15:07:34;9.10;99.90
3756;DHT22;1893;52.526;13.360;2023-02-12T15:10:22;9.20;99.90
3756;DHT22;1893;52.526;13.360;2023-02-12T15:16:07;9.10;99.90
3756;DHT22;1893;52.526;13.360;2023-02-12T15:21:23;9.20;99.90
3756;DHT22;1893;52.526;13.360;2023-02-12T15:24:13;9.10;99.90
3756;DHT22;1893;52.526;13.360;2023-02-12T15:26:48;9.00;99.90
3756;DHT22;1893;52.526;13.360;2023-02-12T15:29:41;9.00;99.90
3756;DHT22;1893;52.526;13.360;2023-02-12T15:32:18;9.00;99.90
3756;DHT22;1893;52.526;13.360;2023-02-12T15:34:48;8.90;99.90
3756;DHT22;1893;52.526;13.360;2023-02-12T15:37:27;8.90;99.90
3756;DHT22;1893;52.526;13.360;2023-02-12T15:40:00;8.90;99.90
3756;DHT22;1893;52.526;13.360;2023-02-12T15:42:36;9.00;99.90
3756;DHT22;1893;52.526;13.360;2023-02-12T15:47:42;8.80;99.90
3756;DHT22;1893;52.526;13.360;2023-02-12T15:50:13;8.80;99.90
3756;DHT22;1893;52.526;13.360;2023-02-12T15:52:41;8.80;99.90
3756;DHT22;1893;52.526;13.360;2023-02-12T15:55:18;8.80;99.90
3756;DHT22;1893;52.526;13.360;2023-02-12T15:58:01;8.80;99.90
3756;DHT22;1893;52.526;13.360;2023-02-12T16:03:02;8.70;99.90
3756;DHT22;1893;52.526;13.360;2023-02-12T16:05:28;8.70;99.90
3756;DHT22;1893;52.526;13.360;2023-02-12T16:07:54;8.80;99.90
3756;DHT22;1893;52.526;13.360;2023-02-12T16:10:21;8.80;99.90
3756;DHT22;1893;52.526;13.360;2023-02-12T16:12:48;8.80;99.90
3756;DHT22;1893;52.526;13.360;2023-02-12T16:15:30;8.70;99.90
3756;DHT22;1893;52.526;13.360;2023-02-12T16:17:57;8.70;99.90
3756;DHT22;1893;52.526;13.360;2023-02-12T16:20:26;8.70;99.90
3756;DHT22;1893;52.526;13.360;2023-02-12T16:22:54;8.70;99.90
3756;DHT22;1893;52.526;13.360;2023-02-12T16:25:26;8.70;99.90
3756;DHT22;1893;52.526;13.360;2023-02-12T16:30:36;8.60;99.90
3756;DHT22;1893;52.526;13.360;2023-02-12T16:33:40;8.60;99.90
3756;DHT22;1893;52.526;13.360;2023-02-12T16:36:25;8.60;99.90
3756;DHT22;1893;52.526;13.360;2023-02-12T16:39:03;8.60;99.90
3756;DHT22;1893;52.526;13.360;2023-02-12T16:41:34;8.60;99.90
3756;DHT22;1893;52.526;13.360;2023-02-12T16:46:54;8.60;99.90
3756;DHT22;1893;52.526;13.360;2023-02-12T16:49:23;8.60;99.90
3756;DHT22;1893;52.526;13.360;2023-02-12T16:51:50;8.60;99.90
3756;DHT22;1893;52.526;13.360;2023-02-12T16:54:31;8.50;99.90
3756;DHT22;1893;52.526;13.360;2023-02-12T16:56:57;8.50;99.90
3756;DHT22;1893;52.526;13.360;2023-02-12T16:59:24;8.50;99.90
3756;DHT22;1893;52.526;13.360;2023-02-12T17:02:08;8.50;99.90
3756;DHT22;1893;52.526;13.360;2023-02-12T17:04:34;8.50;99.90
3756;DHT22;1893;52.526;13.360;2023-02-12T17:06:59;8.50;99.90
3756;DHT22;1893;52.526;13.360;2023-02-12T17:09:25;8.50;99.90
3756;DHT22;1893;52.526;13.360;2023-02-12T17:11:51;8.50;99.90
3756;DHT22;1893;52.526;13.360;2023-02-12T17:14:18;8.50;99.90
3756;DHT22;1893;52.526;13.360;2023-02-12T17:16:45;8.50;99.90
3756;DHT22;1893;52.526;13.360;2023-02-12T17:19:11;8.50;99.90
3756;DHT22;1893;52.526;13.360;2023-02-12T17:21:42;8.40;99.90
3756;DHT22;1893;52.526;13.360;2023-02-12T17:24:27;8.40;99.90
3756;DHT22;1893;52.526;13.360;2023-02-12T17:26:53;8.40;99.90
3756;DHT22;1893;52.526;13.360;2023-02-12T17:29:21;8.40;99.90
3756;DHT22;1893;52.526;13.360;2023-02-12T17:31:47;8.40;99.90
3756;DHT22;1893;52.526;13.360;2023-02-12T17:34:13;8.40;99.90
3756;DHT22;1893;52.526;13.360;2023-02-12T17:36:39;8.30;99.90
3756;DHT22;1893;52.526;13.360;2023-02-12T17:39:06;8.20;99.90
3756;DHT22;1893;52.526;13.360;2023-02-12T17:41:32;8.20;99.90
3756;DHT22;1893;52.526;13.360;2023-02-12T17:43:57;8.20;99.90
3756;DHT22;1893;52.526;13.360;2023-02-12T17:46:26;8.20;99.90
3756;DHT22;1893;52.526;13.360;2023-02-12T17:48:52;8.20;99.90
3756;DHT22;1893;52.526;13.360;2023-02-12T17:51:18;8.20;99.90
3756;DHT22;1893;52.526;13.360;2023-02-12T17:53:44;8.30;99.90
3756;DHT22;1893;52.526;13.360;2023-02-12T17:56:11;8.20;99.90
3756;DHT22;1893;52.526;13.360;2023-02-12T17:58:38;8.20;99.90
3756;DHT22;1893;52.526;13.360;2023-02-12T18:01:05;8.10;99.90
3756;DHT22;1893;52.526;13.360;2023-02-12T18:03:31;8.10;99.90
3756;DHT22;1893;52.526;13.360;2023-02-12T18:05:56;8.00;99.90
3756;DHT22;1893;52.526;13.360;2023-02-12T18:08:22;8.00;99.90
3756;DHT22;1893;52.526;13.360;2023-02-12T18:10:47;7.90;99.90
3756;DHT22;1893;52.526;13.360;2023-02-12T18:13:13;7.80;99.90
3756;DHT22;1893;52.526;13.360;2023-02-12T18:15:39;7.80;99.90
3756;DHT22;1893;52.526;13.360;2023-02-12T18:18:05;7.80;99.90
3756;DHT22;1893;52.526;13.360;2023-02-12T18:20:31;7.80;99.90
3756;DHT22;1893;52.526;13.360;2023-02-12T18:22:56;7.70;99.90
3756;DHT22;1893;52.526;13.360;2023-02-12T18:25:22;7.70;99.90
3756;DHT22;1893;52.526;13.360;2023-02-12T18:27:48;7.70;99.90
3756;DHT22;1893;52.526;13.360;2023-02-12T18:30:13;7.70;99.90
3756;DHT22;1893;52.526;13.360;2023-02-12T18:32:39;7.70;99.90
3756;DHT22;1893;52.526;13.360;2023-02-12T18:35:06;7.70;99.90
3756;DHT22;1893;52.526;13.360;2023-02-12T18:37:32;7.70;99.90
3756;DHT22;1893;52.526;13.360;2023-02-12T18:39:57;7.80;99.90
3756;DHT22;1893;52.526;13.360;2023-02-12T18:42:24;7.80;99.90
3756;DHT22;1893;52.526;13.360;2023-02-12T18:44:52;7.80;99.90
3756;DHT22;1893;52.526;13.360;2023-02-12T18:47:18;7.80;99.90
3756;DHT22;1893;52.526;13.360;2023-02-12T18:49:43;7.80;99.90
3756;DHT22;1893;52.526;13.360;2023-02-12T18:52:09;7.90;99.90
3756;DHT22;1893;52.526;13.360;2023-02-12T18:54:34;7.80;99.90
3756;DHT22;1893;52.526;13.360;2023-02-12T18:57:00;7.80;99.90
3756;DHT22;1893;52.526;13.360;2023-02-12T18:59:26;7.80;99.90
3756;DHT22;1893;52.526;13.360;2023-02-12T19:01:51;7.80;99.90
3756;DHT22;1893;52.526;13.360;2023-02-12T19:04:19;7.80;99.90
3756;DHT22;1893;52.526;13.360;2023-02-12T19:06:47;7.80;99.90
3756;DHT22;1893;52.526;13.360;2023-02-12T19:09:14;7.80;99.90
3756;DHT22;1893;52.526;13.360;2023-02-12T19:11:43;7.80;99.90